SWA3165 KCHS-KMDW
Flight info
| Callsign | SWA3165 |
|---|---|
| Flight time | 1h 49m |
| Altitude | 30000 |
| Route | MLTRE3 VANNC DCT BURGG DCT CUBIM Q50 IBATE DCT HEVAN DCT DROSE FISSK7 |
| Aircraft | B38M/M-SDE2E3GHIJ4J7P2RWZ/LB1D1 |
Departure
| Time | 2026-04-26 11:54 |
|---|---|
| Airport | Charleston International Airport (KCHS) |
Arrival
| Time | 2026-04-26 13:43 |
|---|---|
| Airport | Chicago Midway International Airport (KMDW) |
| Time | Latitude | Longitude | Altitude | Speed | Heading |
|---|---|---|---|---|---|
| 2026-04-26 11:27 | 32.88573 | -80.03850 | 56 ft | 0 kts | 76° |
| 2026-04-26 11:44 | 32.88570 | -80.03864 | 56 ft | 3 kts | 74° |
| 2026-04-26 11:44 | 32.88561 | -80.03895 | 56 ft | 4 kts | 64° |
| 2026-04-26 11:45 | 32.88547 | -80.03918 | 56 ft | 3 kts | 29° |
| 2026-04-26 11:45 | 32.88533 | -80.03920 | 56 ft | 0 kts | 322° |
| 2026-04-26 11:50 | 32.88538 | -80.03925 | 56 ft | 4 kts | 322° |
| 2026-04-26 11:50 | 32.88580 | -80.03964 | 56 ft | 11 kts | 322° |
| 2026-04-26 11:50 | 32.88633 | -80.04013 | 56 ft | 8 kts | 321° |
| 2026-04-26 11:50 | 32.88672 | -80.04050 | 56 ft | 7 kts | 322° |
| 2026-04-26 11:51 | 32.88704 | -80.04059 | 56 ft | 4 kts | 32° |
| 2026-04-26 11:51 | 32.88742 | -80.04008 | 56 ft | 13 kts | 51° |
| 2026-04-26 11:51 | 32.88806 | -80.03911 | 56 ft | 14 kts | 51° |
| 2026-04-26 11:51 | 32.88872 | -80.03812 | 56 ft | 15 kts | 52° |
| 2026-04-26 11:52 | 32.88943 | -80.03706 | 56 ft | 19 kts | 52° |
| 2026-04-26 11:52 | 32.89022 | -80.03586 | 56 ft | 17 kts | 51° |
| 2026-04-26 11:52 | 32.89105 | -80.03460 | 56 ft | 22 kts | 51° |
| 2026-04-26 11:52 | 32.89191 | -80.03326 | 56 ft | 19 kts | 54° |
| 2026-04-26 11:53 | 32.89261 | -80.03268 | 56 ft | 10 kts | 346° |
| 2026-04-26 11:53 | 32.89372 | -80.03349 | 56 ft | 41 kts | 327° |
| 2026-04-26 11:53 | 32.89799 | -80.03672 | 56 ft | 104 kts | 327° |
| 2026-04-26 11:54 | 32.91498 | -80.04971 | 622 ft | 161 kts | 327° |
| 2026-04-26 11:54 | 32.92474 | -80.05719 | 1189 ft | 172 kts | 328° |
| 2026-04-26 11:54 | 32.93585 | -80.06362 | 1657 ft | 188 kts | 336° |
| 2026-04-26 11:54 | 32.94824 | -80.06982 | 2224 ft | 195 kts | 337° |
| 2026-04-26 11:55 | 32.96138 | -80.07594 | 2740 ft | 212 kts | 338° |
| 2026-04-26 11:55 | 32.97548 | -80.08251 | 3308 ft | 224 kts | 336° |
| 2026-04-26 11:55 | 32.99072 | -80.08970 | 3757 ft | 248 kts | 336° |
| 2026-04-26 11:55 | 33.00723 | -80.09752 | 4499 ft | 262 kts | 336° |
| 2026-04-26 11:56 | 33.02454 | -80.10578 | 5396 ft | 271 kts | 336° |
| 2026-04-26 11:56 | 33.04210 | -80.11417 | 6394 ft | 274 kts | 335° |
| 2026-04-26 11:56 | 33.05987 | -80.12268 | 7359 ft | 277 kts | 335° |
| 2026-04-26 11:56 | 33.07796 | -80.13134 | 8298 ft | 281 kts | 335° |
| 2026-04-26 11:57 | 33.09618 | -80.14007 | 9205 ft | 284 kts | 335° |
| 2026-04-26 11:57 | 33.11464 | -80.14892 | 10098 ft | 287 kts | 335° |
| 2026-04-26 11:57 | 33.13359 | -80.15802 | 10694 ft | 303 kts | 335° |
| 2026-04-26 11:57 | 33.15369 | -80.16767 | 11184 ft | 319 kts | 335° |
| 2026-04-26 11:58 | 33.17485 | -80.17783 | 11661 ft | 334 kts | 335° |
| 2026-04-26 11:58 | 33.19679 | -80.18837 | 12000 ft | 343 kts | 335° |
| 2026-04-26 11:58 | 33.21906 | -80.19908 | 12389 ft | 346 kts | 335° |
| 2026-04-26 11:58 | 33.24138 | -80.20983 | 13187 ft | 347 kts | 335° |
| 2026-04-26 11:59 | 33.26392 | -80.22068 | 13945 ft | 350 kts | 335° |
| 2026-04-26 11:59 | 33.28658 | -80.23160 | 14652 ft | 354 kts | 335° |
| 2026-04-26 11:59 | 33.30954 | -80.24266 | 15354 ft | 357 kts | 335° |
| 2026-04-26 11:59 | 33.33154 | -80.25636 | 15969 ft | 356 kts | 321° |
| 2026-04-26 12:00 | 33.34919 | -80.27644 | 16635 ft | 355 kts | 311° |
| 2026-04-26 12:00 | 33.36610 | -80.29858 | 17257 ft | 358 kts | 309° |
| 2026-04-26 12:00 | 33.38252 | -80.32070 | 17848 ft | 361 kts | 309° |
| 2026-04-26 12:00 | 33.39911 | -80.34334 | 18444 ft | 363 kts | 308° |
| 2026-04-26 12:01 | 33.41579 | -80.36634 | 19054 ft | 365 kts | 308° |
| 2026-04-26 12:01 | 33.43248 | -80.38946 | 19627 ft | 368 kts | 308° |
| 2026-04-26 12:01 | 33.44919 | -80.41268 | 20184 ft | 370 kts | 308° |
| 2026-04-26 12:01 | 33.46609 | -80.43618 | 20726 ft | 373 kts | 308° |
| 2026-04-26 12:02 | 33.48514 | -80.45756 | 21241 ft | 379 kts | 318° |
| 2026-04-26 12:02 | 33.50595 | -80.47711 | 21752 ft | 382 kts | 318° |
| 2026-04-26 12:02 | 33.52692 | -80.49664 | 22233 ft | 385 kts | 318° |
| 2026-04-26 12:02 | 33.54819 | -80.51640 | 22720 ft | 387 kts | 318° |
| 2026-04-26 12:03 | 33.56951 | -80.53620 | 23192 ft | 389 kts | 318° |
| 2026-04-26 12:03 | 33.59100 | -80.55617 | 23654 ft | 392 kts | 318° |
| 2026-04-26 12:03 | 33.61259 | -80.57624 | 24102 ft | 394 kts | 318° |
| 2026-04-26 12:03 | 33.63436 | -80.59649 | 24542 ft | 396 kts | 318° |
| 2026-04-26 12:04 | 33.65626 | -80.61687 | 24967 ft | 399 kts | 318° |
| 2026-04-26 12:04 | 33.67821 | -80.63732 | 25391 ft | 401 kts | 318° |
| 2026-04-26 12:04 | 33.70034 | -80.65795 | 25804 ft | 403 kts | 318° |
| 2026-04-26 12:04 | 33.72251 | -80.67862 | 26196 ft | 405 kts | 318° |
| 2026-04-26 12:05 | 33.74480 | -80.69942 | 26648 ft | 406 kts | 319° |
| 2026-04-26 12:05 | 33.76713 | -80.72029 | 27099 ft | 406 kts | 318° |
| 2026-04-26 12:05 | 33.78945 | -80.74114 | 27485 ft | 408 kts | 318° |
| 2026-04-26 12:05 | 33.80758 | -80.75810 | 27789 ft | 409 kts | 318° |
| 2026-04-26 12:06 | 33.83007 | -80.77913 | 28162 ft | 410 kts | 318° |
| 2026-04-26 12:06 | 33.85259 | -80.80023 | 28519 ft | 412 kts | 318° |
| 2026-04-26 12:06 | 33.87526 | -80.82147 | 28880 ft | 413 kts | 318° |
| 2026-04-26 12:06 | 33.89801 | -80.84279 | 29234 ft | 415 kts | 318° |
| 2026-04-26 12:07 | 33.92077 | -80.86416 | 29579 ft | 416 kts | 318° |
| 2026-04-26 12:07 | 33.94327 | -80.88528 | 29900 ft | 417 kts | 318° |
| 2026-04-26 12:07 | 33.96615 | -80.90678 | 29956 ft | 415 kts | 318° |
| 2026-04-26 12:08 | 34.01162 | -80.94955 | 29973 ft | 414 kts | 318° |
| 2026-04-26 12:08 | 34.05710 | -80.99239 | 29974 ft | 416 kts | 318° |
| 2026-04-26 12:09 | 34.10239 | -81.03511 | 29975 ft | 415 kts | 318° |
| 2026-04-26 12:09 | 34.14774 | -81.07794 | 29974 ft | 413 kts | 318° |
| 2026-04-26 12:10 | 34.19292 | -81.12068 | 29976 ft | 412 kts | 318° |
| 2026-04-26 12:10 | 34.23802 | -81.16339 | 29978 ft | 411 kts | 319° |
| 2026-04-26 12:11 | 34.28297 | -81.20603 | 29980 ft | 410 kts | 319° |
| 2026-04-26 12:11 | 34.32778 | -81.24860 | 29981 ft | 409 kts | 319° |
| 2026-04-26 12:12 | 34.37255 | -81.29118 | 29988 ft | 408 kts | 318° |
| 2026-04-26 12:12 | 34.41717 | -81.33369 | 29995 ft | 408 kts | 319° |
| 2026-04-26 12:13 | 34.46150 | -81.37597 | 30000 ft | 408 kts | 318° |
| 2026-04-26 12:13 | 34.50598 | -81.41846 | 30006 ft | 407 kts | 319° |
| 2026-04-26 12:14 | 34.55037 | -81.46091 | 30011 ft | 407 kts | 318° |
| 2026-04-26 12:14 | 34.59483 | -81.50350 | 30016 ft | 406 kts | 318° |
| 2026-04-26 12:15 | 34.63923 | -81.54608 | 30022 ft | 407 kts | 319° |
| 2026-04-26 12:15 | 34.68371 | -81.58881 | 30028 ft | 407 kts | 319° |
| 2026-04-26 12:16 | 34.72792 | -81.63134 | 30029 ft | 407 kts | 319° |
| 2026-04-26 12:16 | 34.77236 | -81.67414 | 30025 ft | 408 kts | 319° |
| 2026-04-26 12:17 | 34.81683 | -81.71704 | 30018 ft | 408 kts | 319° |
| 2026-04-26 12:17 | 34.86104 | -81.75975 | 30008 ft | 409 kts | 319° |
| 2026-04-26 12:18 | 34.89845 | -81.79592 | 29999 ft | 409 kts | 319° |
| 2026-04-26 12:18 | 34.93877 | -81.83497 | 29991 ft | 410 kts | 319° |
| 2026-04-26 12:19 | 34.98348 | -81.87830 | 29984 ft | 411 kts | 319° |
| 2026-04-26 12:19 | 35.02848 | -81.92145 | 29970 ft | 414 kts | 323° |
| 2026-04-26 12:20 | 35.08026 | -81.95340 | 29980 ft | 418 kts | 331° |
| 2026-04-26 12:20 | 35.13302 | -81.98373 | 29983 ft | 419 kts | 331° |
| 2026-04-26 12:21 | 35.18583 | -82.01397 | 29991 ft | 418 kts | 332° |
| 2026-04-26 12:21 | 35.23801 | -82.04388 | 29997 ft | 414 kts | 332° |
| 2026-04-26 12:22 | 35.29014 | -82.07381 | 30002 ft | 415 kts | 332° |
| 2026-04-26 12:22 | 35.34250 | -82.10389 | 30004 ft | 416 kts | 332° |
| 2026-04-26 12:23 | 35.39494 | -82.13408 | 30007 ft | 417 kts | 332° |
| 2026-04-26 12:23 | 35.44743 | -82.16434 | 30015 ft | 418 kts | 332° |
| 2026-04-26 12:24 | 35.50003 | -82.19470 | 30019 ft | 418 kts | 332° |
| 2026-04-26 12:24 | 35.55266 | -82.22513 | 30020 ft | 419 kts | 332° |
| 2026-04-26 12:25 | 35.63186 | -82.27100 | 30024 ft | 420 kts | 332° |
| 2026-04-26 12:25 | 35.68471 | -82.30166 | 30025 ft | 420 kts | 332° |
| 2026-04-26 12:26 | 35.73731 | -82.33223 | 30027 ft | 420 kts | 332° |
| 2026-04-26 12:26 | 35.79020 | -82.36301 | 30077 ft | 421 kts | 332° |
| 2026-04-26 12:27 | 35.81669 | -82.37844 | 30447 ft | 421 kts | 332° |
| 2026-04-26 12:27 | 35.84334 | -82.39399 | 30562 ft | 428 kts | 332° |
| 2026-04-26 12:27 | 35.87037 | -82.40975 | 30797 ft | 431 kts | 332° |
| 2026-04-26 12:27 | 35.89759 | -82.42565 | 31189 ft | 431 kts | 332° |
| 2026-04-26 12:28 | 35.92458 | -82.44142 | 31605 ft | 430 kts | 332° |
| 2026-04-26 12:28 | 35.95160 | -82.45722 | 32024 ft | 428 kts | 332° |
| 2026-04-26 12:28 | 35.97842 | -82.47292 | 32432 ft | 427 kts | 332° |
| 2026-04-26 12:28 | 36.00531 | -82.48867 | 32832 ft | 426 kts | 331° |
| 2026-04-26 12:29 | 36.03202 | -82.50431 | 33156 ft | 426 kts | 332° |
| 2026-04-26 12:29 | 36.05880 | -82.52003 | 33479 ft | 426 kts | 332° |
| 2026-04-26 12:29 | 36.10329 | -82.54616 | 34017 ft | 426 kts | 331° |
| 2026-04-26 12:30 | 36.13005 | -82.56188 | 34041 ft | 425 kts | 331° |
| 2026-04-26 12:30 | 36.18325 | -82.59318 | 34041 ft | 423 kts | 331° |
| 2026-04-26 12:31 | 36.26290 | -82.64014 | 34042 ft | 422 kts | 331° |
| 2026-04-26 12:31 | 36.31590 | -82.67144 | 34043 ft | 421 kts | 331° |
| 2026-04-26 12:32 | 36.36834 | -82.70247 | 34043 ft | 421 kts | 331° |
| 2026-04-26 12:33 | 36.44801 | -82.74968 | 34047 ft | 420 kts | 331° |
| 2026-04-26 12:33 | 36.50071 | -82.78097 | 34049 ft | 419 kts | 331° |
| 2026-04-26 12:34 | 36.55324 | -82.81221 | 34055 ft | 418 kts | 331° |
| 2026-04-26 12:34 | 36.60547 | -82.84332 | 34059 ft | 418 kts | 331° |
| 2026-04-26 12:35 | 36.65796 | -82.87463 | 34060 ft | 418 kts | 331° |
| 2026-04-26 12:35 | 36.71036 | -82.90593 | 34064 ft | 418 kts | 331° |
| 2026-04-26 12:36 | 36.76280 | -82.93729 | 34066 ft | 418 kts | 331° |
| 2026-04-26 12:36 | 36.81519 | -82.96867 | 34067 ft | 417 kts | 331° |
| 2026-04-26 12:37 | 36.86579 | -83.00325 | 34062 ft | 413 kts | 318° |
| 2026-04-26 12:37 | 36.88516 | -83.02960 | 34077 ft | 411 kts | 306° |
| 2026-04-26 12:37 | 36.90150 | -83.05877 | 34070 ft | 410 kts | 303° |
| 2026-04-26 12:38 | 36.93253 | -83.11871 | 34074 ft | 410 kts | 302° |
| 2026-04-26 12:38 | 36.96272 | -83.17918 | 34074 ft | 409 kts | 302° |
| 2026-04-26 12:39 | 36.99902 | -83.23339 | 34081 ft | 412 kts | 321° |
| 2026-04-26 12:39 | 37.04664 | -83.27336 | 34072 ft | 413 kts | 325° |
| 2026-04-26 12:40 | 37.09531 | -83.31185 | 34074 ft | 414 kts | 326° |
| 2026-04-26 12:40 | 37.14432 | -83.35003 | 34077 ft | 414 kts | 326° |
| 2026-04-26 12:41 | 37.19300 | -83.38791 | 34081 ft | 415 kts | 326° |
| 2026-04-26 12:41 | 37.24211 | -83.42618 | 34084 ft | 415 kts | 326° |
| 2026-04-26 12:42 | 37.29120 | -83.46448 | 34085 ft | 416 kts | 326° |
| 2026-04-26 12:42 | 37.34030 | -83.50285 | 34085 ft | 416 kts | 326° |
| 2026-04-26 12:43 | 37.38953 | -83.54139 | 34085 ft | 417 kts | 326° |
| 2026-04-26 12:43 | 37.43883 | -83.58004 | 34083 ft | 417 kts | 326° |
| 2026-04-26 12:44 | 37.48806 | -83.61870 | 34083 ft | 418 kts | 326° |
| 2026-04-26 12:44 | 37.53736 | -83.65748 | 34083 ft | 418 kts | 326° |
| 2026-04-26 12:45 | 37.58673 | -83.69636 | 34088 ft | 419 kts | 326° |
| 2026-04-26 12:45 | 37.63619 | -83.73538 | 34090 ft | 419 kts | 326° |
| 2026-04-26 12:46 | 37.68564 | -83.77447 | 34099 ft | 419 kts | 326° |
| 2026-04-26 12:46 | 37.73517 | -83.81367 | 34103 ft | 420 kts | 326° |
| 2026-04-26 12:47 | 37.78468 | -83.85292 | 34106 ft | 420 kts | 326° |
| 2026-04-26 12:47 | 37.83421 | -83.89224 | 34108 ft | 420 kts | 326° |
| 2026-04-26 12:48 | 37.88343 | -83.93139 | 34112 ft | 421 kts | 326° |
| 2026-04-26 12:48 | 37.93319 | -83.97103 | 34115 ft | 421 kts | 326° |
| 2026-04-26 12:49 | 37.98250 | -84.01037 | 34117 ft | 421 kts | 326° |
| 2026-04-26 12:49 | 38.03236 | -84.05022 | 34118 ft | 421 kts | 326° |
| 2026-04-26 12:50 | 38.08153 | -84.08958 | 34117 ft | 421 kts | 326° |
| 2026-04-26 12:50 | 38.13102 | -84.12925 | 34115 ft | 421 kts | 326° |
| 2026-04-26 12:51 | 38.17945 | -84.16815 | 34112 ft | 421 kts | 326° |
| 2026-04-26 12:51 | 38.22893 | -84.20795 | 34109 ft | 421 kts | 326° |
| 2026-04-26 12:52 | 38.27841 | -84.24781 | 34108 ft | 421 kts | 326° |
| 2026-04-26 12:52 | 38.32780 | -84.28766 | 34106 ft | 420 kts | 326° |
| 2026-04-26 12:53 | 38.37718 | -84.32758 | 34106 ft | 421 kts | 326° |
| 2026-04-26 12:53 | 38.42671 | -84.36768 | 34108 ft | 421 kts | 326° |
| 2026-04-26 12:54 | 38.47588 | -84.40756 | 34111 ft | 421 kts | 326° |
| 2026-04-26 12:54 | 38.52566 | -84.44799 | 34113 ft | 421 kts | 326° |
| 2026-04-26 12:55 | 38.57512 | -84.48824 | 34115 ft | 421 kts | 326° |
| 2026-04-26 12:55 | 38.62418 | -84.52822 | 34117 ft | 421 kts | 326° |
| 2026-04-26 12:56 | 38.67358 | -84.56854 | 34117 ft | 422 kts | 326° |
| 2026-04-26 12:56 | 38.72307 | -84.60901 | 34118 ft | 422 kts | 326° |
| 2026-04-26 12:57 | 38.77253 | -84.64952 | 34120 ft | 422 kts | 326° |
| 2026-04-26 12:57 | 38.82197 | -84.69009 | 34122 ft | 422 kts | 326° |
| 2026-04-26 12:58 | 38.89611 | -84.75104 | 34123 ft | 422 kts | 326° |
| 2026-04-26 12:58 | 38.94291 | -84.78959 | 34123 ft | 422 kts | 326° |
| 2026-04-26 12:59 | 38.99209 | -84.83018 | 34121 ft | 423 kts | 326° |
| 2026-04-26 12:59 | 39.04145 | -84.87097 | 34122 ft | 423 kts | 326° |
| 2026-04-26 13:00 | 39.09092 | -84.91194 | 34133 ft | 422 kts | 326° |
| 2026-04-26 13:00 | 39.14042 | -84.95298 | 34137 ft | 422 kts | 326° |
| 2026-04-26 13:01 | 39.18976 | -84.99395 | 34139 ft | 422 kts | 326° |
| 2026-04-26 13:01 | 39.23918 | -85.03507 | 34139 ft | 422 kts | 326° |
| 2026-04-26 13:02 | 39.28853 | -85.07619 | 34139 ft | 422 kts | 326° |
| 2026-04-26 13:02 | 39.33789 | -85.11738 | 34136 ft | 422 kts | 326° |
| 2026-04-26 13:03 | 39.38818 | -85.15662 | 34132 ft | 422 kts | 328° |
| 2026-04-26 13:03 | 39.43864 | -85.19575 | 34132 ft | 422 kts | 328° |
| 2026-04-26 13:04 | 39.48895 | -85.23488 | 34134 ft | 422 kts | 328° |
| 2026-04-26 13:04 | 39.53917 | -85.27400 | 34136 ft | 421 kts | 328° |
| 2026-04-26 13:05 | 39.58937 | -85.31318 | 34141 ft | 421 kts | 328° |
| 2026-04-26 13:05 | 39.63952 | -85.35238 | 34137 ft | 421 kts | 328° |
| 2026-04-26 13:06 | 39.68904 | -85.39115 | 33936 ft | 406 kts | 328° |
| 2026-04-26 13:06 | 39.71265 | -85.40967 | 33689 ft | 396 kts | 328° |
| 2026-04-26 13:06 | 39.73598 | -85.42798 | 33439 ft | 387 kts | 328° |
| 2026-04-26 13:07 | 39.75879 | -85.44589 | 33193 ft | 379 kts | 328° |
| 2026-04-26 13:07 | 39.78174 | -85.46393 | 32962 ft | 382 kts | 328° |
| 2026-04-26 13:07 | 39.80422 | -85.48161 | 32737 ft | 383 kts | 328° |
| 2026-04-26 13:07 | 39.82697 | -85.49952 | 32507 ft | 384 kts | 328° |
| 2026-04-26 13:08 | 39.84986 | -85.51755 | 32277 ft | 385 kts | 328° |
| 2026-04-26 13:08 | 39.87277 | -85.53562 | 32047 ft | 385 kts | 328° |
| 2026-04-26 13:08 | 39.89568 | -85.55369 | 31816 ft | 387 kts | 328° |
| 2026-04-26 13:08 | 39.91871 | -85.57188 | 31586 ft | 387 kts | 328° |
| 2026-04-26 13:09 | 39.94182 | -85.59013 | 31355 ft | 388 kts | 328° |
| 2026-04-26 13:09 | 39.96494 | -85.60842 | 31123 ft | 389 kts | 328° |
| 2026-04-26 13:09 | 39.98810 | -85.62676 | 30891 ft | 390 kts | 328° |
| 2026-04-26 13:09 | 40.01138 | -85.64521 | 30660 ft | 391 kts | 328° |
| 2026-04-26 13:10 | 40.03457 | -85.66359 | 30430 ft | 392 kts | 327° |
| 2026-04-26 13:10 | 40.05795 | -85.68214 | 30196 ft | 393 kts | 327° |
| 2026-04-26 13:10 | 40.08143 | -85.70078 | 29963 ft | 394 kts | 327° |
| 2026-04-26 13:10 | 40.10483 | -85.71938 | 29728 ft | 395 kts | 327° |
| 2026-04-26 13:11 | 40.12835 | -85.73809 | 29493 ft | 396 kts | 327° |
| 2026-04-26 13:11 | 40.15194 | -85.75686 | 29256 ft | 398 kts | 327° |
| 2026-04-26 13:11 | 40.17566 | -85.77576 | 29019 ft | 399 kts | 327° |
| 2026-04-26 13:11 | 40.19934 | -85.79465 | 28783 ft | 400 kts | 327° |
| 2026-04-26 13:12 | 40.22310 | -85.81360 | 28545 ft | 401 kts | 327° |
| 2026-04-26 13:12 | 40.24702 | -85.83271 | 28305 ft | 403 kts | 327° |
| 2026-04-26 13:12 | 40.27094 | -85.85183 | 28065 ft | 404 kts | 327° |
| 2026-04-26 13:12 | 40.29500 | -85.87108 | 27825 ft | 405 kts | 327° |
| 2026-04-26 13:13 | 40.31907 | -85.89035 | 27586 ft | 406 kts | 327° |
| 2026-04-26 13:13 | 40.34324 | -85.90973 | 27347 ft | 408 kts | 327° |
| 2026-04-26 13:13 | 40.36748 | -85.92917 | 27107 ft | 409 kts | 327° |
| 2026-04-26 13:13 | 40.39180 | -85.94869 | 26866 ft | 410 kts | 327° |
| 2026-04-26 13:14 | 40.41619 | -85.96828 | 26624 ft | 412 kts | 328° |
| 2026-04-26 13:14 | 40.44066 | -85.98795 | 26383 ft | 413 kts | 327° |
| 2026-04-26 13:14 | 40.45683 | -86.00095 | 26223 ft | 414 kts | 328° |
| 2026-04-26 13:14 | 40.48949 | -86.02725 | 25899 ft | 416 kts | 327° |
| 2026-04-26 13:15 | 40.50642 | -86.04018 | 25706 ft | 417 kts | 332° |
| 2026-04-26 13:15 | 40.54343 | -86.05361 | 25366 ft | 422 kts | 353° |
| 2026-04-26 13:15 | 40.56325 | -86.05500 | 25231 ft | 423 kts | 357° |
| 2026-04-26 13:15 | 40.59285 | -86.05551 | 24985 ft | 425 kts | 358° |
| 2026-04-26 13:16 | 40.62241 | -86.05539 | 24739 ft | 426 kts | 359° |
| 2026-04-26 13:16 | 40.65178 | -86.05501 | 24494 ft | 428 kts | 359° |
| 2026-04-26 13:16 | 40.68154 | -86.05444 | 24231 ft | 429 kts | 360° |
| 2026-04-26 13:16 | 40.71152 | -86.05378 | 23299 ft | 434 kts | 360° |
| 2026-04-26 13:17 | 40.77221 | -86.05240 | 21465 ft | 434 kts | 360° |
| 2026-04-26 13:17 | 40.80231 | -86.05171 | 20521 ft | 432 kts | 360° |
| 2026-04-26 13:18 | 40.86148 | -86.05035 | 18896 ft | 404 kts | 360° |
| 2026-04-26 13:18 | 40.88864 | -86.04973 | 18429 ft | 379 kts | 359° |
| 2026-04-26 13:18 | 40.93776 | -86.06720 | 17239 ft | 365 kts | 327° |
| 2026-04-26 13:19 | 40.95724 | -86.08847 | 16674 ft | 361 kts | 311° |
| 2026-04-26 13:19 | 40.97138 | -86.11554 | 16146 ft | 356 kts | 295° |
| 2026-04-26 13:19 | 40.98094 | -86.14549 | 15641 ft | 353 kts | 289° |
| 2026-04-26 13:19 | 40.98923 | -86.17596 | 15126 ft | 351 kts | 287° |
| 2026-04-26 13:20 | 40.99693 | -86.20656 | 14620 ft | 349 kts | 286° |
| 2026-04-26 13:20 | 41.00424 | -86.23695 | 14123 ft | 346 kts | 286° |
| 2026-04-26 13:20 | 41.01139 | -86.26732 | 13627 ft | 344 kts | 285° |
| 2026-04-26 13:20 | 41.01839 | -86.29759 | 13132 ft | 342 kts | 285° |
| 2026-04-26 13:21 | 41.02525 | -86.32754 | 12640 ft | 340 kts | 285° |
| 2026-04-26 13:21 | 41.03208 | -86.35747 | 12146 ft | 338 kts | 285° |
| 2026-04-26 13:21 | 41.03884 | -86.38726 | 11651 ft | 336 kts | 285° |
| 2026-04-26 13:21 | 41.04557 | -86.41687 | 11163 ft | 335 kts | 285° |
| 2026-04-26 13:22 | 41.05441 | -86.44506 | 10881 ft | 329 kts | 296° |
| 2026-04-26 13:22 | 41.06502 | -86.47136 | 10729 ft | 317 kts | 297° |
| 2026-04-26 13:22 | 41.07530 | -86.49657 | 10586 ft | 304 kts | 298° |
| 2026-04-26 13:22 | 41.08510 | -86.52061 | 10460 ft | 296 kts | 298° |
| 2026-04-26 13:23 | 41.09502 | -86.54491 | 10338 ft | 297 kts | 298° |
| 2026-04-26 13:23 | 41.10472 | -86.56870 | 10206 ft | 297 kts | 298° |
| 2026-04-26 13:23 | 41.11469 | -86.59314 | 10059 ft | 297 kts | 298° |
| 2026-04-26 13:23 | 41.12555 | -86.61637 | 9851 ft | 298 kts | 309° |
| 2026-04-26 13:24 | 41.14015 | -86.63520 | 9747 ft | 296 kts | 318° |
| 2026-04-26 13:24 | 41.15582 | -86.65360 | 9619 ft | 297 kts | 319° |
| 2026-04-26 13:24 | 41.17117 | -86.67137 | 9485 ft | 297 kts | 320° |
| 2026-04-26 13:24 | 41.18678 | -86.68933 | 9340 ft | 296 kts | 320° |
| 2026-04-26 13:25 | 41.20237 | -86.70722 | 9197 ft | 296 kts | 320° |
| 2026-04-26 13:25 | 41.21792 | -86.72505 | 9054 ft | 296 kts | 320° |
| 2026-04-26 13:25 | 41.23353 | -86.74295 | 8914 ft | 296 kts | 320° |
| 2026-04-26 13:25 | 41.24909 | -86.76081 | 8773 ft | 295 kts | 320° |
| 2026-04-26 13:26 | 41.26460 | -86.77860 | 8627 ft | 295 kts | 320° |
| 2026-04-26 13:26 | 41.28010 | -86.79641 | 8487 ft | 294 kts | 320° |
| 2026-04-26 13:26 | 41.29557 | -86.81418 | 8346 ft | 293 kts | 320° |
| 2026-04-26 13:26 | 41.31097 | -86.83189 | 8206 ft | 293 kts | 320° |
| 2026-04-26 13:27 | 41.32635 | -86.84958 | 8066 ft | 292 kts | 320° |
| 2026-04-26 13:27 | 41.34169 | -86.86723 | 7927 ft | 291 kts | 320° |
| 2026-04-26 13:27 | 41.35703 | -86.88491 | 7785 ft | 291 kts | 320° |
| 2026-04-26 13:27 | 41.37228 | -86.90249 | 7648 ft | 290 kts | 320° |
| 2026-04-26 13:28 | 41.38748 | -86.92001 | 7511 ft | 289 kts | 320° |
| 2026-04-26 13:28 | 41.40261 | -86.93782 | 7368 ft | 289 kts | 319° |
| 2026-04-26 13:28 | 41.41745 | -86.95585 | 7218 ft | 288 kts | 319° |
| 2026-04-26 13:28 | 41.43200 | -86.97350 | 7074 ft | 287 kts | 319° |
| 2026-04-26 13:29 | 41.44676 | -86.99139 | 6937 ft | 287 kts | 319° |
| 2026-04-26 13:29 | 41.45574 | -87.00444 | 6789 ft | 289 kts | 307° |
| 2026-04-26 13:29 | 41.46890 | -87.03528 | 6655 ft | 286 kts | 297° |
| 2026-04-26 13:29 | 41.47807 | -87.05888 | 6527 ft | 287 kts | 297° |
| 2026-04-26 13:30 | 41.48715 | -87.08259 | 6387 ft | 286 kts | 297° |
| 2026-04-26 13:30 | 41.49599 | -87.10585 | 6252 ft | 285 kts | 297° |
| 2026-04-26 13:30 | 41.50493 | -87.12944 | 6097 ft | 284 kts | 296° |
| 2026-04-26 13:30 | 41.51317 | -87.15328 | 5998 ft | 283 kts | 288° |
| 2026-04-26 13:31 | 41.51634 | -87.17747 | 6014 ft | 283 kts | 276° |
| 2026-04-26 13:31 | 41.51820 | -87.20353 | 6000 ft | 282 kts | 274° |
| 2026-04-26 13:31 | 41.51983 | -87.22964 | 5996 ft | 282 kts | 274° |
| 2026-04-26 13:31 | 41.52137 | -87.25571 | 5994 ft | 282 kts | 273° |
| 2026-04-26 13:32 | 41.52285 | -87.28179 | 5994 ft | 282 kts | 273° |
| 2026-04-26 13:32 | 41.52431 | -87.30791 | 5993 ft | 283 kts | 273° |
| 2026-04-26 13:32 | 41.52575 | -87.33408 | 5992 ft | 283 kts | 273° |
| 2026-04-26 13:32 | 41.52718 | -87.36027 | 5991 ft | 283 kts | 272° |
| 2026-04-26 13:33 | 41.52860 | -87.38640 | 5991 ft | 283 kts | 272° |
| 2026-04-26 13:33 | 41.52998 | -87.41194 | 5991 ft | 283 kts | 272° |
| 2026-04-26 13:33 | 41.53138 | -87.43801 | 5992 ft | 283 kts | 272° |
| 2026-04-26 13:33 | 41.53278 | -87.46420 | 6001 ft | 283 kts | 272° |
| 2026-04-26 13:34 | 41.53418 | -87.49041 | 6004 ft | 282 kts | 272° |
| 2026-04-26 13:34 | 41.53510 | -87.50763 | 6007 ft | 282 kts | 272° |
| 2026-04-26 13:34 | 41.53621 | -87.52873 | 6007 ft | 283 kts | 272° |
| 2026-04-26 13:34 | 41.53712 | -87.54603 | 6009 ft | 283 kts | 272° |
| 2026-04-26 13:35 | 41.53897 | -87.58112 | 6009 ft | 283 kts | 272° |
| 2026-04-26 13:35 | 41.54033 | -87.60720 | 5890 ft | 279 kts | 272° |
| 2026-04-26 13:35 | 41.54153 | -87.63251 | 5484 ft | 279 kts | 272° |
| 2026-04-26 13:35 | 41.54274 | -87.65839 | 5106 ft | 278 kts | 272° |
| 2026-04-26 13:36 | 41.54395 | -87.68401 | 4748 ft | 276 kts | 272° |
| 2026-04-26 13:36 | 41.54515 | -87.70953 | 4384 ft | 275 kts | 272° |
| 2026-04-26 13:36 | 41.54630 | -87.73364 | 4178 ft | 267 kts | 272° |
| 2026-04-26 13:36 | 41.54745 | -87.75784 | 4105 ft | 253 kts | 272° |
| 2026-04-26 13:37 | 41.54854 | -87.78066 | 4020 ft | 240 kts | 272° |
| 2026-04-26 13:37 | 41.55051 | -87.80246 | 3968 ft | 236 kts | 283° |
| 2026-04-26 13:37 | 41.55899 | -87.82097 | 4013 ft | 236 kts | 308° |
| 2026-04-26 13:37 | 41.57052 | -87.83660 | 4020 ft | 236 kts | 316° |
| 2026-04-26 13:38 | 41.58214 | -87.85201 | 4021 ft | 232 kts | 315° |
| 2026-04-26 13:38 | 41.59304 | -87.86657 | 4023 ft | 214 kts | 315° |
| 2026-04-26 13:38 | 41.60324 | -87.88018 | 3990 ft | 201 kts | 316° |
| 2026-04-26 13:38 | 41.61314 | -87.89315 | 3991 ft | 199 kts | 318° |
| 2026-04-26 13:39 | 41.62558 | -87.90085 | 3972 ft | 197 kts | 346° |
| 2026-04-26 13:39 | 41.63913 | -87.90314 | 4011 ft | 196 kts | 358° |
| 2026-04-26 13:39 | 41.65120 | -87.90300 | 4007 ft | 194 kts | 6° |
| 2026-04-26 13:39 | 41.66367 | -87.89919 | 3991 ft | 190 kts | 22° |
| 2026-04-26 13:40 | 41.67514 | -87.89064 | 3957 ft | 189 kts | 37° |
| 2026-04-26 13:40 | 41.68509 | -87.87934 | 3663 ft | 187 kts | 46° |
| 2026-04-26 13:40 | 41.69431 | -87.86715 | 3334 ft | 187 kts | 49° |
| 2026-04-26 13:40 | 41.70368 | -87.85491 | 3012 ft | 188 kts | 48° |
| 2026-04-26 13:41 | 41.71285 | -87.84323 | 2738 ft | 176 kts | 47° |
| 2026-04-26 13:41 | 41.72151 | -87.83226 | 2432 ft | 168 kts | 47° |
| 2026-04-26 13:41 | 41.72973 | -87.82186 | 2186 ft | 155 kts | 47° |
| 2026-04-26 13:41 | 41.73716 | -87.81246 | 1974 ft | 145 kts | 46° |
| 2026-04-26 13:42 | 41.74438 | -87.80333 | 1743 ft | 142 kts | 46° |
| 2026-04-26 13:42 | 41.75155 | -87.79430 | 1542 ft | 142 kts | 46° |
| 2026-04-26 13:42 | 41.75878 | -87.78551 | 1330 ft | 138 kts | 44° |
| 2026-04-26 13:42 | 41.76583 | -87.77677 | 1073 ft | 140 kts | 46° |
| 2026-04-26 13:43 | 41.77268 | -87.76761 | 873 ft | 137 kts | 47° |
| 2026-04-26 13:43 | 41.77959 | -87.75879 | 674 ft | 138 kts | 46° |
| 2026-04-26 13:43 | 41.78566 | -87.75103 | 632 ft | 82 kts | 39° |
| 2026-04-26 13:43 | 41.78823 | -87.74782 | 631 ft | 44 kts | 44° |
| 2026-04-26 13:44 | 41.78959 | -87.74588 | 631 ft | 15 kts | 81° |
| 2026-04-26 13:44 | 41.78916 | -87.74509 | 631 ft | 7 kts | 179° |
| 2026-04-26 13:44 | 41.78901 | -87.74520 | 631 ft | 2 kts | 225° |
| 2026-04-26 13:44 | 41.78881 | -87.74549 | 631 ft | 7 kts | 227° |
| 2026-04-26 13:45 | 41.78851 | -87.74590 | 631 ft | 6 kts | 225° |
| 2026-04-26 13:45 | 41.78813 | -87.74638 | 631 ft | 7 kts | 223° |
| 2026-04-26 13:45 | 41.78783 | -87.74676 | 631 ft | 5 kts | 223° |
| 2026-04-26 13:45 | 41.78755 | -87.74711 | 631 ft | 5 kts | 223° |
| 2026-04-26 13:46 | 41.78733 | -87.74739 | 631 ft | 4 kts | 223° |
| 2026-04-26 13:46 | 41.78711 | -87.74765 | 631 ft | 4 kts | 219° |
| 2026-04-26 13:46 | 41.78686 | -87.74783 | 631 ft | 5 kts | 193° |
| 2026-04-26 13:46 | 41.78650 | -87.74786 | 631 ft | 5 kts | 179° |
| 2026-04-26 13:47 | 41.78630 | -87.74770 | 631 ft | 5 kts | 127° |
| 2026-04-26 13:47 | 41.78605 | -87.74715 | 631 ft | 4 kts | 86° |
| 2026-04-26 13:47 | 41.78614 | -87.74680 | 631 ft | 6 kts | 71° |
| 2026-04-26 13:47 | 41.78622 | -87.74649 | 631 ft | 0 kts | 70° |